sensor_id;sensor_type;location;lat;lon;timestamp;P1;durP1;ratioP1;P2;durP2;ratioP2
23747;SDS011;12054;53.662;10.126;2023-07-16T00:01:59;3.67;;;1.38;;
23747;SDS011;12054;53.662;10.126;2023-07-16T00:04:25;2.17;;;1.58;;
23747;SDS011;12054;53.662;10.126;2023-07-16T00:06:50;3.35;;;1.65;;
23747;SDS011;12054;53.662;10.126;2023-07-16T00:09:16;2.25;;;1.52;;
23747;SDS011;12054;53.662;10.126;2023-07-16T00:11:41;2.95;;;1.58;;
23747;SDS011;12054;53.662;10.126;2023-07-16T00:14:07;4.07;;;1.60;;
23747;SDS011;12054;53.662;10.126;2023-07-16T00:16:32;4.38;;;1.60;;
23747;SDS011;12054;53.662;10.126;2023-07-16T00:18:58;2.75;;;1.40;;
23747;SDS011;12054;53.662;10.126;2023-07-16T00:21:24;2.58;;;1.80;;
23747;SDS011;12054;53.662;10.126;2023-07-16T00:23:50;2.40;;;1.35;;
23747;SDS011;12054;53.662;10.126;2023-07-16T00:26:15;3.17;;;1.58;;
23747;SDS011;12054;53.662;10.126;2023-07-16T00:28:41;4.72;;;1.80;;
23747;SDS011;12054;53.662;10.126;2023-07-16T00:31:07;3.40;;;1.60;;
23747;SDS011;12054;53.662;10.126;2023-07-16T00:33:32;3.85;;;1.80;;
23747;SDS011;12054;53.662;10.126;2023-07-16T00:35:58;1.80;;;1.40;;
23747;SDS011;12054;53.662;10.126;2023-07-16T00:38:23;3.08;;;1.67;;
23747;SDS011;12054;53.662;10.126;2023-07-16T00:40:49;2.72;;;1.58;;
23747;SDS011;12054;53.662;10.126;2023-07-16T00:43:15;2.97;;;1.50;;
23747;SDS011;12054;53.662;10.126;2023-07-16T00:45:41;2.58;;;1.75;;
23747;SDS011;12054;53.662;10.126;2023-07-16T00:48:09;3.95;;;2.00;;
23747;SDS011;12054;53.662;10.126;2023-07-16T00:50:35;3.45;;;1.65;;
23747;SDS011;12054;53.662;10.126;2023-07-16T00:53:04;2.38;;;1.60;;
23747;SDS011;12054;53.662;10.126;2023-07-16T00:55:31;2.90;;;1.70;;
23747;SDS011;12054;53.662;10.126;2023-07-16T00:58:02;2.75;;;1.42;;
23747;SDS011;12054;53.662;10.126;2023-07-16T01:00:33;3.38;;;1.83;;
23747;SDS011;12054;53.662;10.126;2023-07-16T01:03:00;2.90;;;1.60;;
23747;SDS011;12054;53.662;10.126;2023-07-16T01:05:34;2.58;;;1.80;;
23747;SDS011;12054;53.662;10.126;2023-07-16T01:08:34;2.78;;;1.80;;
23747;SDS011;12054;53.662;10.126;2023-07-16T01:11:05;4.63;;;1.60;;
23747;SDS011;12054;53.662;10.126;2023-07-16T01:13:32;3.58;;;1.85;;
23747;SDS011;12054;53.662;10.126;2023-07-16T01:15:58;1.67;;;1.50;;
23747;SDS011;12054;53.662;10.126;2023-07-16T01:18:24;2.95;;;1.83;;
23747;SDS011;12054;53.662;10.126;2023-07-16T01:20:49;5.00;;;1.88;;
23747;SDS011;12054;53.662;10.126;2023-07-16T01:28:53;3.30;;;1.70;;
23747;SDS011;12054;53.662;10.126;2023-07-16T01:31:38;3.30;;;1.73;;
23747;SDS011;12054;53.662;10.126;2023-07-16T01:34:06;2.33;;;1.52;;
23747;SDS011;12054;53.662;10.126;2023-07-16T01:36:33;2.10;;;1.58;;
23747;SDS011;12054;53.662;10.126;2023-07-16T01:39:00;3.60;;;2.15;;
23747;SDS011;12054;53.662;10.126;2023-07-16T01:41:27;3.33;;;1.80;;
23747;SDS011;12054;53.662;10.126;2023-07-16T01:43:52;3.70;;;1.90;;
23747;SDS011;12054;53.662;10.126;2023-07-16T01:46:18;3.90;;;1.73;;
23747;SDS011;12054;53.662;10.126;2023-07-16T01:48:44;2.97;;;1.80;;
23747;SDS011;12054;53.662;10.126;2023-07-16T01:51:09;3.25;;;1.85;;
23747;SDS011;12054;53.662;10.126;2023-07-16T01:53:38;3.25;;;2.10;;
23747;SDS011;12054;53.662;10.126;2023-07-16T01:56:04;2.17;;;1.58;;
23747;SDS011;12054;53.662;10.126;2023-07-16T01:58:30;2.92;;;2.00;;
23747;SDS011;12054;53.662;10.126;2023-07-16T02:00:55;2.67;;;1.98;;
23747;SDS011;12054;53.662;10.126;2023-07-16T02:03:21;4.32;;;2.10;;
23747;SDS011;12054;53.662;10.126;2023-07-16T02:05:47;3.13;;;1.77;;
23747;SDS011;12054;53.662;10.126;2023-07-16T02:08:12;4.25;;;1.88;;
23747;SDS011;12054;53.662;10.126;2023-07-16T02:10:38;4.32;;;2.00;;
23747;SDS011;12054;53.662;10.126;2023-07-16T02:13:03;3.75;;;1.83;;
23747;SDS011;12054;53.662;10.126;2023-07-16T02:15:29;4.95;;;2.00;;
23747;SDS011;12054;53.662;10.126;2023-07-16T02:17:54;3.28;;;1.90;;
23747;SDS011;12054;53.662;10.126;2023-07-16T02:20:20;4.35;;;2.00;;
23747;SDS011;12054;53.662;10.126;2023-07-16T02:22:45;3.97;;;1.83;;
23747;SDS011;12054;53.662;10.126;2023-07-16T02:25:11;2.85;;;2.00;;
23747;SDS011;12054;53.662;10.126;2023-07-16T02:27:37;3.33;;;1.98;;
23747;SDS011;12054;53.662;10.126;2023-07-16T02:30:02;3.03;;;1.70;;
23747;SDS011;12054;53.662;10.126;2023-07-16T02:32:28;3.97;;;2.17;;
23747;SDS011;12054;53.662;10.126;2023-07-16T02:34:54;4.38;;;2.25;;
23747;SDS011;12054;53.662;10.126;2023-07-16T02:37:19;2.50;;;1.90;;
23747;SDS011;12054;53.662;10.126;2023-07-16T02:39:45;3.30;;;2.10;;
23747;SDS011;12054;53.662;10.126;2023-07-16T02:42:14;3.60;;;2.03;;
23747;SDS011;12054;53.662;10.126;2023-07-16T02:44:39;2.72;;;1.75;;
23747;SDS011;12054;53.662;10.126;2023-07-16T02:47:09;3.92;;;1.90;;
23747;SDS011;12054;53.662;10.126;2023-07-16T02:49:38;4.60;;;2.17;;
23747;SDS011;12054;53.662;10.126;2023-07-16T02:52:04;3.83;;;2.05;;
23747;SDS011;12054;53.662;10.126;2023-07-16T02:54:30;3.30;;;1.80;;
23747;SDS011;12054;53.662;10.126;2023-07-16T02:56:56;2.90;;;2.05;;
23747;SDS011;12054;53.662;10.126;2023-07-16T02:59:22;3.75;;;1.85;;
23747;SDS011;12054;53.662;10.126;2023-07-16T03:01:48;6.75;;;2.45;;
23747;SDS011;12054;53.662;10.126;2023-07-16T03:04:13;3.53;;;1.98;;
23747;SDS011;12054;53.662;10.126;2023-07-16T03:06:39;3.35;;;1.95;;
23747;SDS011;12054;53.662;10.126;2023-07-16T03:09:04;2.78;;;1.80;;
23747;SDS011;12054;53.662;10.126;2023-07-16T03:11:30;5.03;;;2.30;;
23747;SDS011;12054;53.662;10.126;2023-07-16T03:13:55;3.47;;;2.30;;
23747;SDS011;12054;53.662;10.126;2023-07-16T03:16:21;2.72;;;1.63;;
23747;SDS011;12054;53.662;10.126;2023-07-16T03:18:46;3.55;;;1.90;;
23747;SDS011;12054;53.662;10.126;2023-07-16T03:21:12;3.85;;;1.98;;
23747;SDS011;12054;53.662;10.126;2023-07-16T03:23:37;3.75;;;1.77;;
23747;SDS011;12054;53.662;10.126;2023-07-16T03:26:03;3.97;;;2.05;;
23747;SDS011;12054;53.662;10.126;2023-07-16T03:28:28;4.35;;;1.90;;
23747;SDS011;12054;53.662;10.126;2023-07-16T03:30:54;4.03;;;1.80;;
23747;SDS011;12054;53.662;10.126;2023-07-16T03:33:19;4.38;;;1.63;;
23747;SDS011;12054;53.662;10.126;2023-07-16T03:35:45;3.05;;;1.65;;
23747;SDS011;12054;53.662;10.126;2023-07-16T03:38:12;2.70;;;1.73;;
23747;SDS011;12054;53.662;10.126;2023-07-16T03:40:39;3.75;;;1.80;;
23747;SDS011;12054;53.662;10.126;2023-07-16T03:43:05;6.18;;;1.92;;
23747;SDS011;12054;53.662;10.126;2023-07-16T03:45:30;2.95;;;1.70;;
23747;SDS011;12054;53.662;10.126;2023-07-16T03:47:56;3.78;;;1.92;;
23747;SDS011;12054;53.662;10.126;2023-07-16T03:50:21;2.20;;;1.55;;
23747;SDS011;12054;53.662;10.126;2023-07-16T03:52:47;3.75;;;1.67;;
23747;SDS011;12054;53.662;10.126;2023-07-16T03:55:13;4.22;;;2.00;;
23747;SDS011;12054;53.662;10.126;2023-07-16T03:57:38;4.40;;;1.80;;
23747;SDS011;12054;53.662;10.126;2023-07-16T04:00:05;2.78;;;1.85;;
23747;SDS011;12054;53.662;10.126;2023-07-16T04:02:34;3.83;;;1.90;;
23747;SDS011;12054;53.662;10.126;2023-07-16T04:04:59;4.13;;;1.73;;
23747;SDS011;12054;53.662;10.126;2023-07-16T04:07:25;2.95;;;1.77;;
23747;SDS011;12054;53.662;10.126;2023-07-16T04:09:51;3.55;;;1.75;;
23747;SDS011;12054;53.662;10.126;2023-07-16T04:12:16;2.95;;;1.92;;
23747;SDS011;12054;53.662;10.126;2023-07-16T04:14:42;3.20;;;1.92;;
23747;SDS011;12054;53.662;10.126;2023-07-16T04:17:07;3.13;;;1.83;;
23747;SDS011;12054;53.662;10.126;2023-07-16T04:19:33;3.72;;;2.08;;
23747;SDS011;12054;53.662;10.126;2023-07-16T04:21:59;3.92;;;2.10;;
23747;SDS011;12054;53.662;10.126;2023-07-16T04:24:24;3.35;;;1.88;;
23747;SDS011;12054;53.662;10.126;2023-07-16T04:26:51;3.65;;;1.92;;
23747;SDS011;12054;53.662;10.126;2023-07-16T04:29:17;5.47;;;1.80;;
23747;SDS011;12054;53.662;10.126;2023-07-16T04:31:43;4.03;;;1.80;;
23747;SDS011;12054;53.662;10.126;2023-07-16T04:34:08;4.53;;;1.90;;
23747;SDS011;12054;53.662;10.126;2023-07-16T04:36:34;3.03;;;1.73;;
23747;SDS011;12054;53.662;10.126;2023-07-16T04:38:59;2.85;;;1.70;;
23747;SDS011;12054;53.662;10.126;2023-07-16T04:41:25;4.88;;;1.83;;
23747;SDS011;12054;53.662;10.126;2023-07-16T04:43:50;4.75;;;2.05;;
23747;SDS011;12054;53.662;10.126;2023-07-16T04:46:16;5.07;;;2.13;;
23747;SDS011;12054;53.662;10.126;2023-07-16T04:48:41;2.92;;;1.77;;
23747;SDS011;12054;53.662;10.126;2023-07-16T04:51:07;2.78;;;1.60;;
23747;SDS011;12054;53.662;10.126;2023-07-16T04:53:32;3.95;;;1.80;;
23747;SDS011;12054;53.662;10.126;2023-07-16T04:55:58;4.35;;;1.88;;
23747;SDS011;12054;53.662;10.126;2023-07-16T04:58:23;3.45;;;2.05;;
23747;SDS011;12054;53.662;10.126;2023-07-16T05:00:49;2.47;;;1.73;;
23747;SDS011;12054;53.662;10.126;2023-07-16T05:03:14;4.00;;;1.70;;
23747;SDS011;12054;53.662;10.126;2023-07-16T05:05:40;2.30;;;1.58;;
23747;SDS011;12054;53.662;10.126;2023-07-16T05:08:05;3.63;;;1.98;;
23747;SDS011;12054;53.662;10.126;2023-07-16T05:10:31;3.47;;;1.90;;
23747;SDS011;12054;53.662;10.126;2023-07-16T05:12:57;4.32;;;1.70;;
23747;SDS011;12054;53.662;10.126;2023-07-16T05:15:23;3.28;;;1.73;;
23747;SDS011;12054;53.662;10.126;2023-07-16T05:17:48;4.97;;;2.03;;
23747;SDS011;12054;53.662;10.126;2023-07-16T05:20:14;2.95;;;1.88;;
23747;SDS011;12054;53.662;10.126;2023-07-16T05:22:39;6.05;;;1.90;;
23747;SDS011;12054;53.662;10.126;2023-07-16T05:25:05;2.88;;;1.90;;
23747;SDS011;12054;53.662;10.126;2023-07-16T05:27:30;4.07;;;1.70;;
23747;SDS011;12054;53.662;10.126;2023-07-16T05:29:56;3.53;;;1.90;;
23747;SDS011;12054;53.662;10.126;2023-07-16T05:32:21;4.55;;;1.90;;
23747;SDS011;12054;53.662;10.126;2023-07-16T05:34:47;3.50;;;1.70;;
23747;SDS011;12054;53.662;10.126;2023-07-16T05:37:13;5.00;;;1.85;;
23747;SDS011;12054;53.662;10.126;2023-07-16T05:39:38;5.75;;;2.08;;
23747;SDS011;12054;53.662;10.126;2023-07-16T05:42:04;4.30;;;1.75;;
23747;SDS011;12054;53.662;10.126;2023-07-16T05:44:30;5.70;;;1.83;;
23747;SDS011;12054;53.662;10.126;2023-07-16T05:46:56;4.00;;;2.13;;
23747;SDS011;12054;53.662;10.126;2023-07-16T05:49:23;3.53;;;1.92;;
23747;SDS011;12054;53.662;10.126;2023-07-16T05:51:49;6.53;;;1.67;;
23747;SDS011;12054;53.662;10.126;2023-07-16T05:54:14;6.25;;;2.17;;
23747;SDS011;12054;53.662;10.126;2023-07-16T05:56:40;5.32;;;2.00;;
23747;SDS011;12054;53.662;10.126;2023-07-16T05:59:05;3.97;;;1.70;;
23747;SDS011;12054;53.662;10.126;2023-07-16T06:01:31;4.22;;;2.00;;
23747;SDS011;12054;53.662;10.126;2023-07-16T06:03:56;2.95;;;1.70;;
23747;SDS011;12054;53.662;10.126;2023-07-16T06:06:22;4.22;;;1.90;;
23747;SDS011;12054;53.662;10.126;2023-07-16T06:08:47;4.05;;;1.95;;
23747;SDS011;12054;53.662;10.126;2023-07-16T06:11:13;5.47;;;1.80;;
23747;SDS011;12054;53.662;10.126;2023-07-16T06:13:39;4.97;;;2.03;;
23747;SDS011;12054;53.662;10.126;2023-07-16T06:16:04;4.97;;;1.70;;
23747;SDS011;12054;53.662;10.126;2023-07-16T06:18:30;4.13;;;1.73;;
23747;SDS011;12054;53.662;10.126;2023-07-16T06:20:55;6.68;;;2.38;;
23747;SDS011;12054;53.662;10.126;2023-07-16T06:23:21;2.78;;;1.85;;
23747;SDS011;12054;53.662;10.126;2023-07-16T06:25:46;4.95;;;1.90;;
23747;SDS011;12054;53.662;10.126;2023-07-16T06:28:13;5.40;;;2.13;;
23747;SDS011;12054;53.662;10.126;2023-07-16T06:30:39;5.75;;;2.17;;
23747;SDS011;12054;53.662;10.126;2023-07-16T06:33:05;3.30;;;1.58;;
23747;SDS011;12054;53.662;10.126;2023-07-16T06:35:31;4.10;;;1.95;;
23747;SDS011;12054;53.662;10.126;2023-07-16T06:37:56;4.05;;;2.50;;
23747;SDS011;12054;53.662;10.126;2023-07-16T06:40:22;4.50;;;2.25;;
23747;SDS011;12054;53.662;10.126;2023-07-16T06:42:48;5.22;;;1.75;;
23747;SDS011;12054;53.662;10.126;2023-07-16T06:45:14;5.15;;;1.95;;
23747;SDS011;12054;53.662;10.126;2023-07-16T06:47:39;4.28;;;2.03;;
23747;SDS011;12054;53.662;10.126;2023-07-16T06:50:05;4.60;;;2.22;;
23747;SDS011;12054;53.662;10.126;2023-07-16T06:52:31;5.60;;;2.00;;
23747;SDS011;12054;53.662;10.126;2023-07-16T06:54:56;8.60;;;2.72;;
23747;SDS011;12054;53.662;10.126;2023-07-16T06:57:22;4.47;;;2.33;;
23747;SDS011;12054;53.662;10.126;2023-07-16T06:59:48;5.53;;;2.30;;
23747;SDS011;12054;53.662;10.126;2023-07-16T07:02:15;5.38;;;2.33;;
23747;SDS011;12054;53.662;10.126;2023-07-16T07:04:41;8.10;;;2.83;;
23747;SDS011;12054;53.662;10.126;2023-07-16T07:07:06;3.50;;;2.20;;
23747;SDS011;12054;53.662;10.126;2023-07-16T07:09:32;8.15;;;2.42;;
23747;SDS011;12054;53.662;10.126;2023-07-16T07:11:57;5.55;;;2.47;;
23747;SDS011;12054;53.662;10.126;2023-07-16T07:14:23;4.68;;;2.55;;
23747;SDS011;12054;53.662;10.126;2023-07-16T07:16:48;5.05;;;2.28;;
23747;SDS011;12054;53.662;10.126;2023-07-16T07:19:14;4.88;;;2.25;;
23747;SDS011;12054;53.662;10.126;2023-07-16T07:21:39;5.88;;;2.15;;
23747;SDS011;12054;53.662;10.126;2023-07-16T07:24:05;5.22;;;2.25;;
23747;SDS011;12054;53.662;10.126;2023-07-16T07:26:30;4.90;;;2.30;;
23747;SDS011;12054;53.662;10.126;2023-07-16T07:28:56;4.00;;;2.40;;
23747;SDS011;12054;53.662;10.126;2023-07-16T07:31:21;7.40;;;2.53;;
23747;SDS011;12054;53.662;10.126;2023-07-16T07:33:47;5.35;;;2.17;;
23747;SDS011;12054;53.662;10.126;2023-07-16T07:36:12;7.05;;;2.60;;
23747;SDS011;12054;53.662;10.126;2023-07-16T07:38:38;6.60;;;2.38;;
23747;SDS011;12054;53.662;10.126;2023-07-16T07:41:06;4.32;;;2.38;;
23747;SDS011;12054;53.662;10.126;2023-07-16T07:43:32;4.97;;;2.47;;
23747;SDS011;12054;53.662;10.126;2023-07-16T07:45:57;6.68;;;2.80;;
23747;SDS011;12054;53.662;10.126;2023-07-16T07:48:23;4.70;;;2.42;;
23747;SDS011;12054;53.662;10.126;2023-07-16T07:50:48;6.75;;;2.35;;
23747;SDS011;12054;53.662;10.126;2023-07-16T07:53:14;4.85;;;2.47;;
23747;SDS011;12054;53.662;10.126;2023-07-16T07:55:42;9.02;;;2.30;;
23747;SDS011;12054;53.662;10.126;2023-07-16T07:58:08;4.80;;;2.35;;
23747;SDS011;12054;53.662;10.126;2023-07-16T08:00:34;6.03;;;2.65;;
23747;SDS011;12054;53.662;10.126;2023-07-16T08:02:59;4.22;;;2.10;;
23747;SDS011;12054;53.662;10.126;2023-07-16T08:05:25;5.75;;;2.38;;
23747;SDS011;12054;53.662;10.126;2023-07-16T08:07:50;3.72;;;2.05;;
23747;SDS011;12054;53.662;10.126;2023-07-16T08:10:17;6.22;;;2.47;;
23747;SDS011;12054;53.662;10.126;2023-07-16T08:12:42;4.40;;;1.92;;
23747;SDS011;12054;53.662;10.126;2023-07-16T08:15:08;4.47;;;2.03;;
23747;SDS011;12054;53.662;10.126;2023-07-16T08:17:39;7.03;;;2.33;;
23747;SDS011;12054;53.662;10.126;2023-07-16T08:20:05;3.92;;;2.08;;
23747;SDS011;12054;53.662;10.126;2023-07-16T08:22:32;4.78;;;2.05;;
23747;SDS011;12054;53.662;10.126;2023-07-16T08:24:57;5.90;;;2.05;;
23747;SDS011;12054;53.662;10.126;2023-07-16T08:27:23;6.57;;;2.00;;
23747;SDS011;12054;53.662;10.126;2023-07-16T08:29:48;3.85;;;1.92;;
23747;SDS011;12054;53.662;10.126;2023-07-16T08:32:14;5.50;;;2.13;;
23747;SDS011;12054;53.662;10.126;2023-07-16T08:34:39;4.93;;;2.10;;
23747;SDS011;12054;53.662;10.126;2023-07-16T08:37:05;6.30;;;1.90;;
23747;SDS011;12054;53.662;10.126;2023-07-16T08:39:31;3.83;;;1.80;;
23747;SDS011;12054;53.662;10.126;2023-07-16T08:41:56;4.88;;;2.25;;
23747;SDS011;12054;53.662;10.126;2023-07-16T08:44:22;8.00;;;2.45;;
23747;SDS011;12054;53.662;10.126;2023-07-16T08:46:48;4.78;;;1.98;;
23747;SDS011;12054;53.662;10.126;2023-07-16T08:49:15;4.28;;;2.33;;
23747;SDS011;12054;53.662;10.126;2023-07-16T08:51:43;5.10;;;2.38;;
23747;SDS011;12054;53.662;10.126;2023-07-16T08:54:12;6.18;;;2.60;;
23747;SDS011;12054;53.662;10.126;2023-07-16T08:56:40;4.70;;;2.47;;
23747;SDS011;12054;53.662;10.126;2023-07-16T08:59:06;6.28;;;2.47;;
23747;SDS011;12054;53.662;10.126;2023-07-16T09:01:33;3.38;;;2.35;;
23747;SDS011;12054;53.662;10.126;2023-07-16T09:03:58;4.65;;;2.70;;
23747;SDS011;12054;53.662;10.126;2023-07-16T09:06:24;4.18;;;2.38;;
23747;SDS011;12054;53.662;10.126;2023-07-16T09:08:49;4.88;;;2.72;;
23747;SDS011;12054;53.662;10.126;2023-07-16T09:11:15;4.78;;;2.22;;
23747;SDS011;12054;53.662;10.126;2023-07-16T09:13:46;5.57;;;3.53;;
23747;SDS011;12054;53.662;10.126;2023-07-16T09:16:12;5.43;;;3.38;;
23747;SDS011;12054;53.662;10.126;2023-07-16T09:18:39;4.15;;;3.65;;
23747;SDS011;12054;53.662;10.126;2023-07-16T09:21:05;5.35;;;3.80;;
23747;SDS011;12054;53.662;10.126;2023-07-16T09:23:31;6.15;;;3.75;;
23747;SDS011;12054;53.662;10.126;2023-07-16T09:25:57;5.72;;;3.72;;
23747;SDS011;12054;53.662;10.126;2023-07-16T09:28:23;5.07;;;3.92;;
23747;SDS011;12054;53.662;10.126;2023-07-16T09:30:50;4.28;;;3.67;;
23747;SDS011;12054;53.662;10.126;2023-07-16T09:33:16;4.50;;;3.50;;
23747;SDS011;12054;53.662;10.126;2023-07-16T09:35:43;4.68;;;3.80;;
23747;SDS011;12054;53.662;10.126;2023-07-16T09:38:09;5.30;;;3.65;;
23747;SDS011;12054;53.662;10.126;2023-07-16T09:40:36;7.03;;;3.83;;
23747;SDS011;12054;53.662;10.126;2023-07-16T09:43:03;7.25;;;3.70;;
23747;SDS011;12054;53.662;10.126;2023-07-16T09:45:29;4.20;;;3.53;;
23747;SDS011;12054;53.662;10.126;2023-07-16T09:47:55;7.03;;;3.92;;
23747;SDS011;12054;53.662;10.126;2023-07-16T09:50:24;5.30;;;3.50;;
23747;SDS011;12054;53.662;10.126;2023-07-16T09:52:52;6.38;;;3.80;;
23747;SDS011;12054;53.662;10.126;2023-07-16T09:55:18;5.63;;;3.42;;
23747;SDS011;12054;53.662;10.126;2023-07-16T09:57:47;4.57;;;3.20;;
23747;SDS011;12054;53.662;10.126;2023-07-16T10:00:13;6.00;;;3.22;;
23747;SDS011;12054;53.662;10.126;2023-07-16T10:02:40;4.38;;;3.28;;
23747;SDS011;12054;53.662;10.126;2023-07-16T10:07:50;4.25;;;3.60;;
23747;SDS011;12054;53.662;10.126;2023-07-16T10:10:25;6.70;;;3.47;;
23747;SDS011;12054;53.662;10.126;2023-07-16T10:13:13;6.28;;;3.50;;
23747;SDS011;12054;53.662;10.126;2023-07-16T10:15:39;6.32;;;3.20;;
23747;SDS011;12054;53.662;10.126;2023-07-16T10:18:26;5.28;;;3.55;;
23747;SDS011;12054;53.662;10.126;2023-07-16T10:20:53;4.47;;;3.20;;
23747;SDS011;12054;53.662;10.126;2023-07-16T10:23:19;5.45;;;3.35;;
23747;SDS011;12054;53.662;10.126;2023-07-16T10:25:57;6.45;;;3.70;;
23747;SDS011;12054;53.662;10.126;2023-07-16T10:28:24;6.40;;;3.25;;
23747;SDS011;12054;53.662;10.126;2023-07-16T10:30:50;5.80;;;2.90;;
23747;SDS011;12054;53.662;10.126;2023-07-16T10:33:16;5.55;;;2.80;;
23747;SDS011;12054;53.662;10.126;2023-07-16T10:35:42;3.97;;;3.10;;
23747;SDS011;12054;53.662;10.126;2023-07-16T10:38:08;5.45;;;2.95;;
23747;SDS011;12054;53.662;10.126;2023-07-16T10:40:38;5.72;;;2.90;;
23747;SDS011;12054;53.662;10.126;2023-07-16T10:43:08;3.67;;;3.05;;
23747;SDS011;12054;53.662;10.126;2023-07-16T10:45:33;5.10;;;3.47;;
23747;SDS011;12054;53.662;10.126;2023-07-16T10:47:59;6.57;;;3.10;;
23747;SDS011;12054;53.662;10.126;2023-07-16T10:50:25;5.10;;;3.08;;
23747;SDS011;12054;53.662;10.126;2023-07-16T10:52:51;4.70;;;2.90;;
23747;SDS011;12054;53.662;10.126;2023-07-16T10:55:18;4.25;;;2.80;;
23747;SDS011;12054;53.662;10.126;2023-07-16T10:57:44;5.78;;;3.00;;
23747;SDS011;12054;53.662;10.126;2023-07-16T11:00:11;3.85;;;2.85;;
23747;SDS011;12054;53.662;10.126;2023-07-16T11:02:39;6.28;;;2.70;;
23747;SDS011;12054;53.662;10.126;2023-07-16T11:05:05;5.35;;;3.05;;
23747;SDS011;12054;53.662;10.126;2023-07-16T11:07:34;5.80;;;3.10;;
23747;SDS011;12054;53.662;10.126;2023-07-16T11:09:59;5.32;;;2.92;;
23747;SDS011;12054;53.662;10.126;2023-07-16T11:12:27;4.55;;;2.92;;
23747;SDS011;12054;53.662;10.126;2023-07-16T11:14:54;6.47;;;3.15;;
23747;SDS011;12054;53.662;10.126;2023-07-16T11:17:21;5.63;;;3.10;;
23747;SDS011;12054;53.662;10.126;2023-07-16T11:19:50;6.70;;;2.92;;
23747;SDS011;12054;53.662;10.126;2023-07-16T11:22:18;7.00;;;3.10;;
23747;SDS011;12054;53.662;10.126;2023-07-16T11:24:47;5.95;;;3.00;;
23747;SDS011;12054;53.662;10.126;2023-07-16T11:27:18;6.55;;;3.13;;
23747;SDS011;12054;53.662;10.126;2023-07-16T11:29:52;5.28;;;3.10;;
23747;SDS011;12054;53.662;10.126;2023-07-16T11:34:53;3.75;;;2.60;;
23747;SDS011;12054;53.662;10.126;2023-07-16T11:37:20;5.97;;;3.25;;
23747;SDS011;12054;53.662;10.126;2023-07-16T11:39:46;4.68;;;2.90;;
23747;SDS011;12054;53.662;10.126;2023-07-16T11:42:12;4.65;;;3.55;;
23747;SDS011;12054;53.662;10.126;2023-07-16T11:44:38;7.20;;;3.30;;
23747;SDS011;12054;53.662;10.126;2023-07-16T11:47:03;6.03;;;2.88;;
23747;SDS011;12054;53.662;10.126;2023-07-16T11:49:29;7.00;;;3.00;;
23747;SDS011;12054;53.662;10.126;2023-07-16T11:51:56;5.65;;;3.10;;
23747;SDS011;12054;53.662;10.126;2023-07-16T11:54:22;7.05;;;3.10;;
23747;SDS011;12054;53.662;10.126;2023-07-16T11:56:47;6.80;;;3.13;;
23747;SDS011;12054;53.662;10.126;2023-07-16T11:59:13;4.18;;;2.47;;
23747;SDS011;12054;53.662;10.126;2023-07-16T12:01:38;6.30;;;3.00;;
23747;SDS011;12054;53.662;10.126;2023-07-16T12:04:04;6.93;;;2.80;;
23747;SDS011;12054;53.662;10.126;2023-07-16T12:06:29;4.88;;;2.75;;
23747;SDS011;12054;53.662;10.126;2023-07-16T12:08:55;4.78;;;2.70;;
23747;SDS011;12054;53.662;10.126;2023-07-16T12:11:21;4.57;;;2.85;;
23747;SDS011;12054;53.662;10.126;2023-07-16T12:13:46;6.00;;;3.08;;
23747;SDS011;12054;53.662;10.126;2023-07-16T12:16:12;6.97;;;3.75;;
23747;SDS011;12054;53.662;10.126;2023-07-16T12:18:38;4.22;;;3.10;;
23747;SDS011;12054;53.662;10.126;2023-07-16T12:21:03;5.93;;;3.10;;
23747;SDS011;12054;53.662;10.126;2023-07-16T12:23:31;5.05;;;3.15;;
23747;SDS011;12054;53.662;10.126;2023-07-16T12:25:56;5.85;;;2.85;;
23747;SDS011;12054;53.662;10.126;2023-07-16T12:28:22;5.40;;;3.15;;
23747;SDS011;12054;53.662;10.126;2023-07-16T12:30:47;5.93;;;3.10;;
23747;SDS011;12054;53.662;10.126;2023-07-16T12:33:12;5.22;;;2.83;;
23747;SDS011;12054;53.662;10.126;2023-07-16T12:35:38;6.82;;;2.60;;
23747;SDS011;12054;53.662;10.126;2023-07-16T12:38:04;3.88;;;2.45;;
23747;SDS011;12054;53.662;10.126;2023-07-16T12:40:30;4.80;;;2.70;;
23747;SDS011;12054;53.662;10.126;2023-07-16T12:42:56;6.15;;;2.70;;
23747;SDS011;12054;53.662;10.126;2023-07-16T12:45:21;4.13;;;2.50;;
23747;SDS011;12054;53.662;10.126;2023-07-16T12:47:46;4.10;;;2.53;;
23747;SDS011;12054;53.662;10.126;2023-07-16T12:50:12;5.97;;;2.67;;
23747;SDS011;12054;53.662;10.126;2023-07-16T12:52:37;6.10;;;3.00;;
23747;SDS011;12054;53.662;10.126;2023-07-16T12:55:03;4.07;;;2.60;;
23747;SDS011;12054;53.662;10.126;2023-07-16T12:57:29;4.18;;;2.45;;
23747;SDS011;12054;53.662;10.126;2023-07-16T12:59:54;6.68;;;3.05;;
23747;SDS011;12054;53.662;10.126;2023-07-16T13:02:20;4.43;;;2.58;;
23747;SDS011;12054;53.662;10.126;2023-07-16T13:04:45;5.43;;;2.38;;
23747;SDS011;12054;53.662;10.126;2023-07-16T13:07:11;4.50;;;2.60;;
23747;SDS011;12054;53.662;10.126;2023-07-16T13:09:36;5.10;;;2.30;;
23747;SDS011;12054;53.662;10.126;2023-07-16T13:12:02;4.72;;;2.30;;
23747;SDS011;12054;53.662;10.126;2023-07-16T13:14:28;3.53;;;2.30;;
23747;SDS011;12054;53.662;10.126;2023-07-16T13:16:53;3.88;;;2.55;;
23747;SDS011;12054;53.662;10.126;2023-07-16T13:19:18;3.33;;;2.22;;
23747;SDS011;12054;53.662;10.126;2023-07-16T13:21:44;5.43;;;2.45;;
23747;SDS011;12054;53.662;10.126;2023-07-16T13:24:10;5.63;;;2.35;;
23747;SDS011;12054;53.662;10.126;2023-07-16T13:26:35;4.60;;;2.20;;
23747;SDS011;12054;53.662;10.126;2023-07-16T13:29:01;3.88;;;2.28;;
23747;SDS011;12054;53.662;10.126;2023-07-16T13:31:27;3.55;;;2.50;;
23747;SDS011;12054;53.662;10.126;2023-07-16T13:33:52;3.05;;;2.58;;
23747;SDS011;12054;53.662;10.126;2023-07-16T13:36:17;4.10;;;1.90;;
23747;SDS011;12054;53.662;10.126;2023-07-16T13:38:43;3.90;;;2.50;;
23747;SDS011;12054;53.662;10.126;2023-07-16T13:41:08;4.05;;;2.30;;
23747;SDS011;12054;53.662;10.126;2023-07-16T13:43:35;4.85;;;2.60;;
23747;SDS011;12054;53.662;10.126;2023-07-16T13:46:00;4.00;;;2.58;;
23747;SDS011;12054;53.662;10.126;2023-07-16T13:48:26;5.45;;;2.90;;
23747;SDS011;12054;53.662;10.126;2023-07-16T13:50:51;3.22;;;2.22;;
23747;SDS011;12054;53.662;10.126;2023-07-16T13:53:17;3.38;;;2.13;;
23747;SDS011;12054;53.662;10.126;2023-07-16T13:55:42;6.32;;;2.47;;
23747;SDS011;12054;53.662;10.126;2023-07-16T13:58:09;5.30;;;2.33;;
23747;SDS011;12054;53.662;10.126;2023-07-16T14:00:34;4.20;;;2.10;;
23747;SDS011;12054;53.662;10.126;2023-07-16T14:03:00;3.97;;;2.40;;
23747;SDS011;12054;53.662;10.126;2023-07-16T14:05:25;3.67;;;2.30;;
23747;SDS011;12054;53.662;10.126;2023-07-16T14:07:51;3.70;;;2.08;;
23747;SDS011;12054;53.662;10.126;2023-07-16T14:10:18;4.68;;;2.45;;
23747;SDS011;12054;53.662;10.126;2023-07-16T14:12:44;7.68;;;2.50;;
23747;SDS011;12054;53.662;10.126;2023-07-16T14:15:09;2.97;;;2.40;;
23747;SDS011;12054;53.662;10.126;2023-07-16T14:17:35;4.32;;;2.38;;
23747;SDS011;12054;53.662;10.126;2023-07-16T14:20:00;3.25;;;2.20;;
23747;SDS011;12054;53.662;10.126;2023-07-16T14:22:26;4.97;;;2.75;;
23747;SDS011;12054;53.662;10.126;2023-07-16T14:24:52;5.00;;;2.22;;
23747;SDS011;12054;53.662;10.126;2023-07-16T14:27:18;4.22;;;2.47;;
23747;SDS011;12054;53.662;10.126;2023-07-16T14:29:44;4.00;;;2.55;;
23747;SDS011;12054;53.662;10.126;2023-07-16T14:32:10;5.43;;;2.70;;
23747;SDS011;12054;53.662;10.126;2023-07-16T14:34:36;5.03;;;2.33;;
23747;SDS011;12054;53.662;10.126;2023-07-16T14:37:01;4.97;;;2.45;;
23747;SDS011;12054;53.662;10.126;2023-07-16T14:39:27;5.13;;;2.33;;